Time;durP1;ratioP1;P1;durP2;ratioP2;P2;SDS_P1;SDS_P2;PMS_P1;PMS_P2;Temp;Humidity;BMP_temperature;BMP_pressure;BME280_temperature;BME280_humidity;BME280_pressure;Samples;Min_cycle;Max_cycle;Signal;HPM_P1;HPM_P2
2021/07/06 00:01:12;;;;;;;15.55;2.38;;;14.00;95.90;;;;;;5028517;28;20167;-82
2021/07/06 00:03:37;;;;;;;13.55;2.35;;;14.00;96.00;;;;;;5029505;28;20043;-82
2021/07/06 00:06:03;;;;;;;15.30;2.25;;;13.90;96.00;;;;;;5031745;28;20428;-82
2021/07/06 00:08:29;;;;;;;11.38;2.10;;;13.90;95.90;;;;;;5026359;28;20033;-82
2021/07/06 00:10:54;;;;;;;9.85;1.90;;;13.90;95.90;;;;;;5029887;28;20462;-82
2021/07/06 00:13:20;;;;;;;16.77;2.50;;;14.00;95.90;;;;;;5028382;28;20410;-86
2021/07/06 00:15:46;;;;;;;9.70;2.20;;;14.00;95.90;;;;;;5060904;28;20036;-86
2021/07/06 00:18:12;;;;;;;9.50;2.03;;;14.00;95.80;;;;;;5031431;28;20122;-84
2021/07/06 00:20:38;;;;;;;8.45;1.60;;;14.00;95.90;;;;;;5027612;28;20108;-82
2021/07/06 00:23:04;;;;;;;10.95;1.98;;;14.00;95.90;;;;;;5061596;28;20432;-82
2021/07/06 00:25:31;;;;;;;11.18;2.25;;;14.10;96.00;;;;;;5027649;28;20025;-81
2021/07/06 00:27:57;;;;;;;13.73;3.15;;;14.10;95.80;;;;;;5065761;28;20026;-81
2021/07/06 00:30:24;;;;;;;13.82;2.17;;;14.00;95.50;;;;;;5033394;28;20144;-81
2021/07/06 00:32:50;;;;;;;11.63;2.03;;;14.10;95.60;;;;;;5066181;28;20052;-81
2021/07/06 00:35:16;;;;;;;11.32;2.00;;;14.00;95.40;;;;;;5032242;28;20386;-82
2021/07/06 00:37:42;;;;;;;13.27;2.30;;;14.00;95.30;;;;;;5032217;28;20025;-81
2021/07/06 00:40:08;;;;;;;10.75;1.90;;;13.90;95.40;;;;;;5063828;28;20029;-81
2021/07/06 00:42:39;;;;;;;12.95;2.00;;;13.90;95.30;;;;;;5032568;28;20025;-81
2021/07/06 00:45:05;;;;;;;10.68;2.13;;;13.80;95.30;;;;;;5034237;28;20045;-82
2021/07/06 00:47:33;;;;;;;11.63;2.30;;;13.80;95.40;;;;;;5031376;28;20042;-82
2021/07/06 00:50:00;;;;;;;11.27;1.73;;;13.70;95.80;;;;;;5032380;28;20040;-82
2021/07/06 00:52:26;;;;;;;10.70;1.80;;;13.70;95.20;;;;;;5031606;28;20053;-82
2021/07/06 00:54:52;;;;;;;10.52;2.20;;;13.70;95.40;;;;;;5034030;28;20025;-82
2021/07/06 00:57:28;;;;;;;12.45;1.95;;;13.80;95.60;;;;;;5033568;28;20044;-84
2021/07/06 00:59:56;;;;;;;12.52;2.28;;;13.80;95.10;;;;;;5034294;28;20025;-83
2021/07/06 01:02:22;;;;;;;9.60;1.58;;;13.80;95.20;;;;;;5028581;28;20030;-83
2021/07/06 01:04:47;;;;;;;10.80;1.90;;;13.80;94.70;;;;;;5026916;28;20385;-83
2021/07/06 01:07:13;;;;;;;15.40;2.00;;;13.80;94.70;;;;;;5021910;28;20104;-83
2021/07/06 01:09:39;;;;;;;9.48;2.15;;;13.70;94.70;;;;;;5031187;28;20502;-84
2021/07/06 01:12:05;;;;;;;8.25;1.77;;;13.70;94.80;;;;;;5033867;28;20044;-87
2021/07/06 01:14:30;;;;;;;7.85;1.73;;;13.70;94.80;;;;;;5032604;28;20391;-85
2021/07/06 01:16:56;;;;;;;8.82;2.30;;;13.70;94.60;;;;;;5063275;28;20027;-85
2021/07/06 01:19:21;;;;;;;7.90;1.80;;;13.70;94.80;;;;;;5064919;28;20489;-85
2021/07/06 01:21:47;;;;;;;10.20;1.83;;;13.60;94.30;;;;;;5031552;28;20144;-85
2021/07/06 01:24:13;;;;;;;12.70;1.70;;;13.60;94.50;;;;;;5034754;28;20056;-85
2021/07/06 01:26:38;;;;;;;9.05;1.60;;;13.60;94.40;;;;;;5063428;28;20449;-85
2021/07/06 01:29:04;;;;;;;11.60;1.67;;;13.60;94.30;;;;;;5062422;28;20488;-85
2021/07/06 01:31:30;;;;;;;7.88;1.75;;;13.60;94.30;;;;;;5063029;28;20056;-86
2021/07/06 01:33:56;;;;;;;9.18;1.75;;;13.50;93.80;;;;;;5063157;28;20029;-86
2021/07/06 01:36:22;;;;;;;8.15;1.63;;;13.60;93.90;;;;;;5033959;28;20053;-85
2021/07/06 01:38:48;;;;;;;8.57;1.88;;;13.50;94.10;;;;;;5029957;28;20029;-84
2021/07/06 01:41:14;;;;;;;7.43;1.85;;;13.50;93.90;;;;;;5032293;28;20067;-84
2021/07/06 01:43:39;;;;;;;8.55;1.55;;;13.50;93.80;;;;;;5031732;28;20171;-85
2021/07/06 01:46:05;;;;;;;8.20;1.83;;;13.50;94.10;;;;;;5062730;28;20026;-84
2021/07/06 01:48:31;;;;;;;8.60;1.65;;;13.50;93.80;;;;;;5031050;28;20052;-84
2021/07/06 01:50:58;;;;;;;7.80;1.80;;;13.50;93.60;;;;;;5033902;28;20473;-84
2021/07/06 01:53:24;;;;;;;10.93;1.73;;;13.60;93.90;;;;;;5063866;28;20417;-86
2021/07/06 01:55:51;;;;;;;9.70;1.88;;;13.60;93.50;;;;;;5062576;28;20036;-83
2021/07/06 01:58:20;;;;;;;6.47;1.40;;;13.60;93.70;;;;;;5062725;28;20029;-83
2021/07/06 02:00:50;;;;;;;11.48;1.92;;;13.70;93.40;;;;;;5046906;28;20028;-84
2021/07/06 02:03:16;;;;;;;10.68;1.80;;;13.70;93.10;;;;;;5030093;28;20018;-83
2021/07/06 02:05:44;;;;;;;9.95;1.58;;;13.80;93.80;;;;;;5031827;28;20132;-84
2021/07/06 02:08:12;;;;;;;9.20;1.77;;;13.90;93.30;;;;;;5030298;28;20028;-83
2021/07/06 02:10:39;;;;;;;7.97;1.90;;;13.90;93.10;;;;;;5029945;28;20371;-81
2021/07/06 02:13:10;;;;;;;9.48;1.60;;;13.90;93.30;;;;;;5030131;28;20026;-84
2021/07/06 02:15:36;;;;;;;10.57;2.13;;;13.90;92.50;;;;;;5031878;28;20060;-85
2021/07/06 02:18:02;;;;;;;10.52;2.40;;;13.90;92.50;;;;;;5030718;28;20068;-83
2021/07/06 02:20:28;;;;;;;8.23;1.70;;;14.00;93.00;;;;;;5031514;28;20132;-83
2021/07/06 02:22:54;;;;;;;12.88;2.08;;;14.00;93.00;;;;;;5030003;28;20036;-83
2021/07/06 02:25:21;;;;;;;12.77;2.13;;;14.00;93.10;;;;;;5063651;28;20493;-83
2021/07/06 02:27:48;;;;;;;11.27;2.10;;;14.10;92.40;;;;;;5018879;28;20028;-83
2021/07/06 02:30:20;;;;;;;10.13;1.88;;;14.10;92.20;;;;;;5033249;28;20108;-83
2021/07/06 02:32:47;;;;;;;13.02;2.33;;;14.10;93.00;;;;;;5031038;28;20091;-83
2021/07/06 02:35:14;;;;;;;13.00;3.05;;;14.20;93.00;;;;;;5031363;28;20114;-83
2021/07/06 02:37:40;;;;;;;13.98;2.05;;;14.20;92.20;;;;;;5061678;28;20482;-80
2021/07/06 02:40:09;;;;;;;11.30;2.03;;;14.30;92.10;;;;;;5031017;28;20025;-81
2021/07/06 02:42:35;;;;;;;9.68;1.92;;;14.30;91.90;;;;;;5031344;28;20021;-80
2021/07/06 02:45:02;;;;;;;14.43;2.33;;;14.30;92.00;;;;;;5031472;28;20071;-81
2021/07/06 02:47:28;;;;;;;10.52;2.05;;;14.40;92.30;;;;;;5028306;28;20068;-81
2021/07/06 02:49:53;;;;;;;10.52;2.40;;;14.40;92.30;;;;;;5028499;28;20096;-80
2021/07/06 02:52:19;;;;;;;7.40;1.73;;;14.40;91.50;;;;;;5061578;28;20025;-80
2021/07/06 02:54:44;;;;;;;8.43;2.28;;;14.40;91.00;;;;;;5030922;28;20049;-82
2021/07/06 02:57:10;;;;;;;9.00;1.52;;;14.50;90.20;;;;;;5064549;28;20025;-83
2021/07/06 02:59:39;;;;;;;8.02;2.05;;;14.50;90.30;;;;;;5061159;28;20033;-82
2021/07/06 03:02:05;;;;;;;7.10;1.40;;;14.50;90.80;;;;;;5062513;28;20047;-83
2021/07/06 03:04:30;;;;;;;6.85;1.67;;;14.50;89.40;;;;;;5029515;28;20112;-83
2021/07/06 03:06:56;;;;;;;9.50;1.80;;;14.60;89.00;;;;;;5030847;28;20025;-84
2021/07/06 03:09:21;;;;;;;5.47;1.27;;;14.50;88.70;;;;;;5031984;28;20513;-84
2021/07/06 03:11:47;;;;;;;7.63;1.73;;;14.60;88.80;;;;;;5031007;28;20026;-84
2021/07/06 03:14:13;;;;;;;10.90;1.80;;;14.60;90.00;;;;;;5028215;28;20028;-84
2021/07/06 03:16:38;;;;;;;7.47;1.98;;;14.60;88.70;;;;;;5062272;28;20116;-83
2021/07/06 03:19:04;;;;;;;9.70;2.05;;;14.60;90.10;;;;;;5030491;28;20025;-87
2021/07/06 03:21:30;;;;;;;5.70;1.38;;;14.60;88.30;;;;;;5030286;28;20374;-87
2021/07/06 03:23:56;;;;;;;10.73;1.67;;;14.60;89.10;;;;;;5062113;28;20033;-85
2021/07/06 03:26:21;;;;;;;7.70;1.58;;;14.60;88.80;;;;;;5060567;28;20137;-85
2021/07/06 03:28:47;;;;;;;10.15;1.63;;;14.70;89.00;;;;;;5024511;28;20068;-83
2021/07/06 03:31:12;;;;;;;5.80;1.30;;;14.60;89.00;;;;;;5030232;28;20028;-83
2021/07/06 03:33:38;;;;;;;10.18;1.75;;;14.60;89.00;;;;;;5030019;28;20087;-82
2021/07/06 03:36:05;;;;;;;4.60;1.42;;;14.70;88.40;;;;;;5032195;28;20021;-82
2021/07/06 03:38:30;;;;;;;8.05;1.27;;;14.70;88.40;;;;;;5028847;28;20022;-85
2021/07/06 03:40:56;;;;;;;11.65;1.67;;;14.70;88.20;;;;;;5027079;28;20029;-85
2021/07/06 03:43:22;;;;;;;6.70;1.60;;;14.70;88.00;;;;;;5062073;28;20032;-85
2021/07/06 03:45:47;;;;;;;10.32;1.42;;;14.60;89.60;;;;;;5030242;28;20091;-85
2021/07/06 03:48:13;;;;;;;6.45;1.35;;;14.60;88.40;;;;;;5063991;28;20041;-85
2021/07/06 03:50:39;;;;;;;8.23;1.50;;;14.60;88.80;;;;;;5029865;28;20041;-85
2021/07/06 03:53:06;;;;;;;6.72;1.15;;;14.60;88.80;;;;;;5029902;28;20052;-86
2021/07/06 03:55:32;;;;;;;6.07;1.67;;;14.60;88.50;;;;;;5028136;28;20029;-88
2021/07/06 03:57:57;;;;;;;9.73;1.50;;;14.60;88.50;;;;;;5028580;28;20521;-85
2021/07/06 04:00:27;;;;;;;5.63;1.27;;;14.60;88.60;;;;;;5031003;28;20057;-89
2021/07/06 04:02:53;;;;;;;4.70;1.05;;;14.60;88.70;;;;;;5031236;28;20117;-88
2021/07/06 04:05:19;;;;;;;8.00;1.30;;;14.70;89.70;;;;;;5061839;28;20033;-88
2021/07/06 04:07:45;;;;;;;8.55;1.50;;;14.60;88.60;;;;;;5029618;28;20051;-85
2021/07/06 04:10:14;;;;;;;5.30;1.13;;;14.60;89.60;;;;;;5030241;28;20047;-86
2021/07/06 04:12:40;;;;;;;5.22;1.20;;;14.60;89.10;;;;;;5027607;28;20030;-87
2021/07/06 04:15:08;;;;;;;4.55;1.00;;;14.60;88.60;;;;;;5029597;28;20036;-86
2021/07/06 04:17:34;;;;;;;8.50;1.40;;;14.60;89.10;;;;;;5060365;28;20021;-86
2021/07/06 04:20:00;;;;;;;7.72;1.08;;;14.60;89.40;;;;;;5061506;28;20028;-87
2021/07/06 04:22:26;;;;;;;7.38;1.45;;;14.60;89.10;;;;;;5060420;28;20025;-86
2021/07/06 04:24:52;;;;;;;7.40;1.23;;;14.60;89.90;;;;;;5061368;28;20056;-86
2021/07/06 04:27:17;;;;;;;7.30;1.60;;;14.60;88.40;;;;;;5030743;28;20036;-86
2021/07/06 04:29:43;;;;;;;8.80;1.58;;;14.60;90.00;;;;;;5061520;28;20041;-85
2021/07/06 04:32:09;;;;;;;7.75;1.10;;;14.50;88.50;;;;;;5028073;28;20482;-85
2021/07/06 04:34:34;;;;;;;4.72;0.98;;;14.60;89.30;;;;;;5029444;28;20033;-87
2021/07/06 04:37:00;;;;;;;5.38;1.10;;;14.60;88.70;;;;;;5060238;28;20060;-87
2021/07/06 04:39:25;;;;;;;4.85;1.20;;;14.60;88.70;;;;;;5029079;28;20032;-90
2021/07/06 04:41:51;;;;;;;6.75;1.30;;;14.60;89.40;;;;;;5030075;28;20017;-92
2021/07/06 04:44:17;;;;;;;8.95;1.35;;;14.60;89.00;;;;;;5030192;28;20036;-91
2021/07/06 04:46:43;;;;;;;4.03;1.20;;;14.60;88.30;;;;;;5028529;28;20143;-90
2021/07/06 04:49:09;;;;;;;9.45;1.40;;;14.60;88.30;;;;;;5061724;28;20061;-88
2021/07/06 04:51:35;;;;;;;4.68;1.10;;;14.60;88.70;;;;;;5027224;28;20024;-87
2021/07/06 04:54:01;;;;;;;7.47;1.27;;;14.60;88.90;;;;;;5062380;28;20025;-87
2021/07/06 04:56:28;;;;;;;4.07;1.10;;;14.60;88.60;;;;;;5060854;28;20036;-88
2021/07/06 04:58:54;;;;;;;7.38;1.27;;;14.60;88.30;;;;;;5059139;28;20025;-87
2021/07/06 05:01:20;;;;;;;6.78;1.20;;;14.70;88.70;;;;;;5059790;28;20144;-86
2021/07/06 05:03:48;;;;;;;11.00;1.73;;;14.70;89.10;;;;;;5044953;28;20557;-87
2021/07/06 05:06:17;;;;;;;5.50;1.17;;;14.60;88.50;;;;;;5026455;28;20051;-85
2021/07/06 05:08:43;;;;;;;5.55;1.02;;;14.70;88.60;;;;;;5029092;28;20084;-85
2021/07/06 05:11:08;;;;;;;7.60;1.30;;;14.60;88.20;;;;;;5025778;28;20021;-85
2021/07/06 05:13:34;;;;;;;5.40;1.13;;;14.70;89.20;;;;;;5028727;28;20036;-86
2021/07/06 05:16:00;;;;;;;6.45;1.10;;;14.70;87.80;;;;;;5030609;28;20026;-85
2021/07/06 05:18:25;;;;;;;5.50;0.93;;;14.70;88.00;;;;;;5032902;28;20022;-86
2021/07/06 05:20:51;;;;;;;6.13;1.10;;;14.70;88.10;;;;;;5031277;28;20405;-87
2021/07/06 05:23:16;;;;;;;4.68;0.90;;;14.80;89.00;;;;;;5019064;28;20029;-89
2021/07/06 05:25:42;;;;;;;4.97;1.20;;;14.80;88.60;;;;;;5022884;28;20029;-88
2021/07/06 05:28:08;;;;;;;6.68;1.00;;;14.80;88.60;;;;;;5032619;28;20037;-88
2021/07/06 05:30:33;;;;;;;6.22;1.20;;;14.80;87.70;;;;;;5023773;28;20034;-89
2021/07/06 05:32:59;;;;;;;5.13;0.95;;;14.90;88.20;;;;;;5021352;28;20036;-86
2021/07/06 05:35:25;;;;;;;3.47;0.82;;;14.90;88.10;;;;;;5021306;28;20045;-86
2021/07/06 05:37:50;;;;;;;5.32;1.05;;;14.90;87.30;;;;;;5022864;28;20083;-84
2021/07/06 05:40:16;;;;;;;3.92;0.63;;;14.90;87.50;;;;;;5018276;28;20021;-85
2021/07/06 05:42:43;;;;;;;6.38;1.20;;;14.90;87.20;;;;;;5050186;28;20482;-85
2021/07/06 05:45:09;;;;;;;4.90;1.05;;;15.00;88.00;;;;;;5016032;28;20024;-84
2021/07/06 05:47:38;;;;;;;5.32;1.20;;;15.00;87.30;;;;;;5014810;28;20045;-83
2021/07/06 05:50:06;;;;;;;6.50;0.90;;;15.10;86.60;;;;;;5017181;28;20041;-83
2021/07/06 05:52:33;;;;;;;4.47;0.98;;;15.10;86.90;;;;;;5022539;28;20030;-90
2021/07/06 05:55:00;;;;;;;5.15;0.93;;;15.10;86.80;;;;;;5029045;28;20065;-83
2021/07/06 05:57:31;;;;;;;4.80;1.17;;;15.20;87.90;;;;;;5052043;28;20030;-86
2021/07/06 06:00:03;;;;;;;3.72;1.05;;;15.30;87.40;;;;;;5050661;28;20034;-85
2021/07/06 06:02:29;;;;;;;8.27;1.08;;;15.30;86.50;;;;;;5031104;28;20025;-83
2021/07/06 06:04:55;;;;;;;5.60;0.98;;;15.40;86.90;;;;;;5021720;28;20041;-83
2021/07/06 06:07:22;;;;;;;3.60;1.13;;;15.40;86.40;;;;;;5027765;28;20021;-89
2021/07/06 06:09:47;;;;;;;4.18;0.82;;;15.30;85.40;;;;;;5048703;28;20175;-83
2021/07/06 06:12:13;;;;;;;3.97;0.85;;;15.30;86.00;;;;;;5024349;28;20108;-84
2021/07/06 06:14:39;;;;;;;6.82;0.88;;;15.40;86.80;;;;;;5027359;28;20036;-85
2021/07/06 06:17:05;;;;;;;5.72;1.00;;;15.40;86.20;;;;;;5026150;28;20032;-85
2021/07/06 06:19:30;;;;;;;4.85;0.75;;;15.40;85.30;;;;;;5054086;28;20018;-86
2021/07/06 06:21:57;;;;;;;3.42;0.75;;;15.50;86.50;;;;;;5053883;28;20387;-85
2021/07/06 06:24:23;;;;;;;5.00;0.85;;;15.50;85.90;;;;;;5031251;28;20029;-86
2021/07/06 06:26:49;;;;;;;4.18;0.80;;;15.50;85.30;;;;;;5059144;28;20033;-84
2021/07/06 06:29:15;;;;;;;3.17;0.95;;;15.50;85.50;;;;;;5026406;28;20562;-85
2021/07/06 06:31:41;;;;;;;2.95;0.88;;;15.50;85.30;;;;;;5022174;28;20171;-85
2021/07/06 06:34:07;;;;;;;3.78;0.80;;;15.40;84.90;;;;;;5023103;28;20113;-83
2021/07/06 06:36:33;;;;;;;2.33;0.77;;;15.40;85.30;;;;;;5030536;28;20021;-86
2021/07/06 06:39:01;;;;;;;2.30;0.65;;;15.50;84.90;;;;;;5038414;28;20124;-85
2021/07/06 06:41:27;;;;;;;5.82;0.98;;;15.50;85.30;;;;;;5023137;28;20105;-86
2021/07/06 06:43:53;;;;;;;6.20;1.20;;;15.60;84.30;;;;;;5023813;28;20025;-84
2021/07/06 06:46:20;;;;;;;3.30;0.68;;;15.70;84.70;;;;;;5053895;28;20389;-85
2021/07/06 06:48:46;;;;;;;2.83;0.70;;;15.80;83.80;;;;;;5013411;28;20120;-85
2021/07/06 06:51:13;;;;;;;2.78;1.02;;;15.90;84.00;;;;;;5054409;28;20037;-86
2021/07/06 06:53:39;;;;;;;3.17;0.90;;;16.10;85.30;;;;;;5028425;28;20093;-86
2021/07/06 06:56:05;;;;;;;5.68;0.75;;;16.10;82.30;;;;;;5027900;28;20104;-85
2021/07/06 06:58:30;;;;;;;1.40;0.50;;;16.20;83.50;;;;;;5027245;28;20116;-86
2021/07/06 07:00:56;;;;;;;3.95;0.60;;;16.30;82.90;;;;;;5026651;28;20558;-87
2021/07/06 07:03:22;;;;;;;3.53;0.65;;;16.30;82.20;;;;;;5025971;28;20549;-86
2021/07/06 07:05:47;;;;;;;1.05;0.52;;;16.30;82.70;;;;;;5026435;28;20105;-85
2021/07/06 07:08:13;;;;;;;4.65;0.55;;;16.30;80.30;;;;;;5020477;28;20041;-80
2021/07/06 07:10:40;;;;;;;2.30;0.52;;;16.30;82.00;;;;;;5023533;28;20160;-81
2021/07/06 07:13:07;;;;;;;3.10;0.60;;;16.30;81.30;;;;;;5022901;28;20021;-81
2021/07/06 07:15:33;;;;;;;1.42;0.40;;;16.40;81.50;;;;;;5028353;28;20029;-84
2021/07/06 07:17:59;;;;;;;3.13;0.50;;;16.30;80.20;;;;;;5058325;28;20394;-87
2021/07/06 07:20:25;;;;;;;2.22;0.38;;;16.30;81.30;;;;;;5058496;28;20025;-93
2021/07/06 07:22:51;;;;;;;1.50;0.43;;;16.40;82.00;;;;;;5073643;28;20635;-92
2021/07/06 07:25:17;;;;;;;3.85;0.70;;;16.40;80.40;;;;;;5030180;28;20104;-82
2021/07/06 07:27:43;;;;;;;3.63;0.90;;;16.40;79.10;;;;;;5029439;28;20026;-83
2021/07/06 07:30:11;;;;;;;5.40;0.80;;;16.50;78.10;;;;;;5031489;28;20021;-84
2021/07/06 07:32:37;;;;;;;4.60;0.85;;;16.40;77.80;;;;;;5029110;28;20067;-84
2021/07/06 07:35:03;;;;;;;5.07;1.00;;;16.40;76.90;;;;;;5026029;28;20037;-84
2021/07/06 07:37:29;;;;;;;5.00;0.85;;;16.50;76.90;;;;;;5026517;28;20068;-83
2021/07/06 07:39:55;;;;;;;2.80;0.65;;;16.50;76.90;;;;;;5028974;28;20034;-84
2021/07/06 07:42:21;;;;;;;3.63;0.80;;;16.50;77.30;;;;;;5030914;28;20021;-84
2021/07/06 07:44:47;;;;;;;4.55;1.02;;;16.60;77.60;;;;;;5027691;28;20029;-80
2021/07/06 07:47:13;;;;;;;3.85;1.02;;;16.80;79.50;;;;;;5026981;28;20037;-81
2021/07/06 07:49:38;;;;;;;3.28;0.93;;;16.90;79.40;;;;;;5027373;28;20075;-77
2021/07/06 07:52:04;;;;;;;6.15;1.00;;;16.90;75.80;;;;;;5030149;28;20053;-77
2021/07/06 07:54:30;;;;;;;4.60;1.17;;;16.70;75.60;;;;;;5030927;28;20160;-77
2021/07/06 07:56:56;;;;;;;5.60;0.98;;;16.60;74.80;;;;;;5032677;28;20029;-78
2021/07/06 07:59:21;;;;;;;5.60;0.80;;;16.60;77.20;;;;;;5028632;28;20025;-77
2021/07/06 08:01:47;;;;;;;3.67;0.80;;;16.70;76.20;;;;;;5036136;28;20359;-78
2021/07/06 08:04:13;;;;;;;3.38;1.00;;;16.80;76.60;;;;;;5031034;28;20114;-77
2021/07/06 08:06:38;;;;;;;6.22;0.77;;;16.80;75.10;;;;;;5030482;28;20478;-78
2021/07/06 08:09:05;;;;;;;6.53;1.40;;;16.80;77.40;;;;;;5032010;28;20034;-77
2021/07/06 08:11:31;;;;;;;4.22;1.10;;;16.90;74.80;;;;;;5025253;28;20022;-77
2021/07/06 08:13:56;;;;;;;5.40;1.00;;;16.80;74.80;;;;;;5029912;28;20098;-77
2021/07/06 08:16:22;;;;;;;4.85;1.05;;;17.00;74.90;;;;;;5024688;28;20179;-78
2021/07/06 08:18:48;;;;;;;4.93;0.88;;;17.10;73.00;;;;;;5023886;28;20030;-76
2021/07/06 08:21:14;;;;;;;7.28;1.15;;;17.20;73.90;;;;;;5026659;28;20018;-78
2021/07/06 08:23:39;;;;;;;7.35;1.17;;;17.30;73.30;;;;;;5028259;28;20026;-78
2021/07/06 08:26:05;;;;;;;4.43;1.10;;;17.40;74.50;;;;;;5027520;28;20061;-78
2021/07/06 08:28:30;;;;;;;5.10;1.05;;;17.50;72.10;;;;;;5027759;28;20422;-77
2021/07/06 08:30:56;;;;;;;6.03;1.13;;;17.50;72.30;;;;;;5028809;28;20159;-77
2021/07/06 08:33:22;;;;;;;4.15;1.00;;;17.50;70.00;;;;;;5030748;28;20021;-81
2021/07/06 08:35:47;;;;;;;5.07;1.15;;;17.40;71.40;;;;;;5060924;28;20441;-78
2021/07/06 08:38:16;;;;;;;7.15;1.30;;;17.50;72.50;;;;;;5026019;28;20025;-77
2021/07/06 08:40:42;;;;;;;5.22;1.08;;;17.50;71.10;;;;;;5056144;28;20422;-77
2021/07/06 08:43:08;;;;;;;7.72;1.10;;;17.50;70.50;;;;;;5028695;28;20460;-77
2021/07/06 08:45:34;;;;;;;6.88;1.38;;;17.50;70.80;;;;;;5027127;28;20525;-78
2021/07/06 08:48:00;;;;;;;4.00;0.90;;;17.30;69.20;;;;;;5033886;28;20045;-77
2021/07/06 08:50:26;;;;;;;5.65;1.00;;;17.10;69.90;;;;;;5055021;28;20056;-77
2021/07/06 08:52:52;;;;;;;6.90;1.23;;;16.90;70.60;;;;;;5025726;28;20540;-78
2021/07/06 08:55:20;;;;;;;10.23;1.40;;;16.90;71.20;;;;;;5031939;28;20029;-78
2021/07/06 08:57:46;;;;;;;5.25;1.05;;;17.00;72.80;;;;;;5031199;28;20029;-77
2021/07/06 09:00:15;;;;;;;6.07;1.00;;;17.10;74.70;;;;;;5036642;28;20040;-78
2021/07/06 09:02:40;;;;;;;4.80;0.93;;;17.20;71.80;;;;;;5033227;28;20264;-79
2021/07/06 09:05:19;;;;;;;7.15;1.00;;;17.40;69.90;;;;;;5028839;28;20026;-79
2021/07/06 09:07:45;;;;;;;5.88;1.30;;;17.70;67.70;;;;;;5030454;28;20035;-78
2021/07/06 09:10:16;;;;;;;6.15;1.08;;;17.90;67.40;;;;;;5031490;28;20044;-79
2021/07/06 09:12:42;;;;;;;4.97;0.85;;;18.00;66.90;;;;;;5030975;28;20081;-80
2021/07/06 09:15:24;;;;;;;5.18;1.50;;;18.10;67.20;;;;;;5034004;28;20044;-79
2021/07/06 09:18:08;;;;;;;3.08;0.80;;;18.20;65.60;;;;;;5034017;28;20032;-78
2021/07/06 09:20:35;;;;;;;6.18;1.02;;;18.20;64.80;;;;;;5032340;28;20030;-79
2021/07/06 09:23:22;;;;;;;4.97;1.00;;;18.20;65.80;;;;;;5032798;28;20032;-79
2021/07/06 09:26:02;;;;;;;4.28;0.90;;;18.10;64.10;;;;;;5032773;28;20082;-79
2021/07/06 09:28:32;;;;;;;3.63;1.08;;;18.20;65.20;;;;;;5032005;28;20033;-81
2021/07/06 09:31:01;;;;;;;4.95;0.77;;;18.20;63.70;;;;;;5030056;28;20046;-78
2021/07/06 09:33:28;;;;;;;3.97;0.82;;;18.10;63.20;;;;;;5032010;28;20500;-80
2021/07/06 09:35:55;;;;;;;3.55;0.88;;;18.10;63.20;;;;;;5040225;28;20033;-79
2021/07/06 09:38:21;;;;;;;4.38;1.00;;;18.10;63.90;;;;;;5031032;28;20057;-76
2021/07/06 09:40:49;;;;;;;4.72;0.77;;;18.00;64.60;;;;;;5037508;28;20025;-76
2021/07/06 09:43:41;;;;;;;1.10;0.60;;;18.10;65.60;;;;;;5045320;28;20038;-76
2021/07/06 09:46:09;;;;;;;4.30;0.90;;;18.10;65.00;;;;;;5019318;28;20042;-75
2021/07/06 09:48:38;;;;;;;2.90;0.82;;;18.40;64.60;;;;;;5033336;28;20096;-76
2021/07/06 09:51:24;;;;;;;5.38;0.65;;;18.40;62.50;;;;;;5036584;28;20041;-76
2021/07/06 09:53:51;;;;;;;6.25;1.10;;;18.50;65.30;;;;;;5035403;28;20033;-76
2021/07/06 09:56:22;;;;;;;4.65;0.90;;;18.80;63.70;;;;;;5029939;28;20022;-76
2021/07/06 09:59:05;;;;;;;3.42;0.98;;;19.00;64.00;;;;;;5028996;28;20025;-78
2021/07/06 10:01:31;;;;;;;3.63;0.75;;;19.20;61.20;;;;;;5071248;28;20064;-78
2021/07/06 10:03:58;;;;;;;3.97;0.80;;;19.10;60.50;;;;;;5030670;28;20045;-79
2021/07/06 10:06:28;;;;;;;3.08;0.80;;;19.10;58.70;;;;;;5033793;28;20034;-80
2021/07/06 10:08:55;;;;;;;4.35;0.80;;;19.10;59.10;;;;;;5035703;28;20045;-80
2021/07/06 10:11:22;;;;;;;4.57;1.00;;;19.20;59.00;;;;;;5017011;28;20545;-79
2021/07/06 10:13:47;;;;;;;6.07;0.80;;;19.40;60.90;;;;;;5024795;28;20037;-79
2021/07/06 10:16:17;;;;;;;3.50;0.90;;;19.40;60.10;;;;;;5034121;28;20024;-84
2021/07/06 10:18:44;;;;;;;3.65;0.90;;;19.10;58.80;;;;;;5028669;28;20025;-84
2021/07/06 10:21:10;;;;;;;3.28;0.98;;;18.90;59.30;;;;;;5043801;28;20502;-86
2021/07/06 10:23:39;;;;;;;2.40;0.77;;;18.90;61.20;;;;;;5022608;28;20048;-84
2021/07/06 10:26:06;;;;;;;4.32;0.98;;;18.90;59.30;;;;;;5029086;28;20055;-84
2021/07/06 10:28:33;;;;;;;2.72;0.77;;;19.00;59.90;;;;;;5043367;28;20025;-84
2021/07/06 10:31:19;;;;;;;3.08;0.80;;;19.00;61.70;;;;;;5030542;28;20186;-82
2021/07/06 10:33:46;;;;;;;3.63;1.00;;;19.20;60.10;;;;;;5028586;28;20108;-83
2021/07/06 10:36:13;;;;;;;2.28;0.80;;;19.30;58.70;;;;;;5034478;28;20018;-83
2021/07/06 10:38:41;;;;;;;4.15;0.93;;;19.60;60.10;;;;;;5050945;28;20418;-82
2021/07/06 10:41:13;;;;;;;3.85;0.75;;;19.70;57.10;;;;;;5025836;28;20030;-84
2021/07/06 10:43:41;;;;;;;1.98;0.80;;;19.90;58.70;;;;;;5028980;28;20406;-83
2021/07/06 10:46:21;;;;;;;5.55;2.10;;;20.10;57.70;;;;;;5027079;28;20025;-83
2021/07/06 10:48:50;;;;;;;4.30;1.10;;;20.40;59.70;;;;;;5027754;28;20046;-84
2021/07/06 10:51:52;;;;;;;2.03;0.73;;;20.50;58.10;;;;;;5028508;28;20079;-82
2021/07/06 10:54:27;;;;;;;1.90;0.80;;;20.40;56.10;;;;;;4983949;28;20506;-83
2021/07/06 10:56:57;;;;;;;4.50;0.82;;;20.20;56.70;;;;;;4993769;28;20649;-82
2021/07/06 10:59:31;;;;;;;3.90;0.80;;;20.20;55.50;;;;;;4993953;28;20084;-84
2021/07/06 11:01:58;;;;;;;4.38;0.80;;;20.30;56.80;;;;;;4988348;28;20154;-83
2021/07/06 11:07:06;;;;;;;2.20;0.63;;;20.20;55.50;;;;;;4988128;28;20042;-76
2021/07/06 11:09:34;;;;;;;2.20;0.70;;;20.10;53.80;;;;;;4974522;28;20056;-75
2021/07/06 11:12:23;;;;;;;5.28;0.70;;;20.20;54.70;;;;;;4977072;28;20034;-76
2021/07/06 11:14:50;;;;;;;2.47;0.80;;;20.00;53.10;;;;;;4978979;28;20051;-75
2021/07/06 11:17:36;;;;;;;3.20;0.70;;;20.10;52.60;;;;;;4980766;28;20150;-75
2021/07/06 11:20:16;;;;;;;3.15;0.70;;;19.90;53.50;;;;;;4986632;28;20151;-75
2021/07/06 11:22:55;;;;;;;2.28;0.70;;;19.90;53.90;;;;;;4987290;28;20099;-76
2021/07/06 11:25:23;;;;;;;2.03;0.80;;;19.70;54.20;;;;;;4974829;28;20027;-76
2021/07/06 11:27:56;;;;;;;3.05;0.60;;;19.60;54.50;;;;;;4989592;28;20056;-76
2021/07/06 11:30:50;;;;;;;4.05;0.82;;;19.80;56.00;;;;;;5032106;28;20034;-76
2021/07/06 11:33:19;;;;;;;5.13;0.90;;;20.10;54.40;;;;;;5048385;28;20087;-76
2021/07/06 11:35:48;;;;;;;3.92;0.82;;;20.40;54.70;;;;;;5031464;28;20030;-76
2021/07/06 11:38:22;;;;;;;2.80;0.82;;;20.40;54.00;;;;;;5031212;28;20025;-75
2021/07/06 11:40:52;;;;;;;3.05;0.77;;;20.60;52.60;;;;;;5030748;28;20025;-76
2021/07/06 11:43:20;;;;;;;3.47;0.80;;;20.70;53.70;;;;;;5028741;28;20033;-77
2021/07/06 11:45:57;;;;;;;3.00;0.90;;;20.80;53.10;;;;;;5030027;28;20033;-76
2021/07/06 11:48:26;;;;;;;7.30;1.27;;;20.60;52.90;;;;;;5021797;28;20037;-75
2021/07/06 11:50:51;;;;;;;4.72;1.45;;;20.60;54.80;;;;;;5020653;28;20091;-76
2021/07/06 11:53:24;;;;;;;3.60;1.08;;;20.80;54.40;;;;;;5030714;28;20433;-75
2021/07/06 11:55:50;;;;;;;;;;;20.80;54.90;;;;;;5028326;28;20102;-75
2021/07/06 11:58:20;;;;;;;4.75;0.85;;;20.60;54.10;;;;;;5026017;28;20357;-76
2021/07/06 12:00:46;;;;;;;5.55;1.17;;;20.40;55.10;;;;;;5030026;28;20038;-76
2021/07/06 12:03:25;;;;;;;5.13;1.30;;;20.40;55.90;;;;;;5031749;28;20394;-76
2021/07/06 12:05:56;;;;;;;5.15;1.10;;;20.40;55.70;;;;;;5029524;28;20021;-76
2021/07/06 12:08:30;;;;;;;5.57;1.63;;;20.40;55.20;;;;;;5027939;28;20025;-76
2021/07/06 12:11:03;;;;;;;8.40;1.40;;;20.20;56.60;;;;;;5027247;28;20514;-76
2021/07/06 12:13:31;;;;;;;6.00;1.30;;;20.10;56.40;;;;;;5027110;28;20025;-76
2021/07/06 12:16:02;;;;;;;4.03;1.25;;;20.00;56.60;;;;;;5026905;28;20061;-76
2021/07/06 12:18:32;;;;;;;2.40;0.98;;;20.20;56.90;;;;;;5029745;28;20022;-75
2021/07/06 12:21:05;;;;;;;4.13;1.00;;;20.40;57.30;;;;;;5030068;28;20084;-77
2021/07/06 12:23:31;;;;;;;3.60;1.33;;;20.60;56.90;;;;;;5034611;28;20584;-77
2021/07/06 12:25:58;;;;;;;6.38;1.30;;;20.90;56.30;;;;;;5035428;28;20524;-76
2021/07/06 12:28:25;;;;;;;4.57;1.13;;;20.90;55.90;;;;;;5033239;28;20311;-76
2021/07/06 12:31:14;;;;;;;5.20;1.08;;;21.00;55.50;;;;;;5033461;28;20034;-77
2021/07/06 12:33:41;;;;;;;5.72;1.13;;;20.80;54.20;;;;;;5039647;28;20402;-77
2021/07/06 12:36:06;;;;;;;4.93;1.13;;;20.70;55.10;;;;;;5031886;28;20025;-78
2021/07/06 12:38:32;;;;;;;3.17;1.15;;;20.60;55.60;;;;;;5037922;28;20044;-75
2021/07/06 12:40:58;;;;;;;3.47;1.23;;;20.60;55.90;;;;;;5034968;28;20466;-75
2021/07/06 12:43:24;;;;;;;3.55;1.00;;;20.20;56.20;;;;;;5032800;28;20148;-76
2021/07/06 12:45:50;;;;;;;3.38;1.10;;;20.10;57.30;;;;;;5032995;28;20116;-76
2021/07/06 12:48:28;;;;;;;2.85;1.10;;;20.00;57.80;;;;;;5039405;28;20156;-77
2021/07/06 12:51:07;;;;;;;5.57;1.35;;;19.70;60.00;;;;;;5030689;28;20044;-76